sensor_id;sensor_type;location;lat;lon;timestamp;pressure;altitude;pressure_sealevel;temperature;humidity
72024;BME280;59889;50.700;5.440;2022-08-03T00:02:20;100076.43;;;30.09;27.26
72024;BME280;59889;50.700;5.440;2022-08-03T00:04:46;100076.15;;;30.14;27.21
72024;BME280;59889;50.700;5.440;2022-08-03T00:07:12;100077.76;;;30.17;27.19
72024;BME280;59889;50.700;5.440;2022-08-03T00:09:37;100076.33;;;30.09;27.29
72024;BME280;59889;50.700;5.440;2022-08-03T00:12:04;100078.74;;;30.07;27.30
72024;BME280;59889;50.700;5.440;2022-08-03T00:14:29;100078.05;;;30.10;27.27
72024;BME280;59889;50.700;5.440;2022-08-03T00:16:55;100076.82;;;30.10;27.27
72024;BME280;59889;50.700;5.440;2022-08-03T00:19:21;100076.23;;;30.12;27.24
72024;BME280;59889;50.700;5.440;2022-08-03T00:21:47;100072.88;;;30.00;27.38
72024;BME280;59889;50.700;5.440;2022-08-03T00:24:12;100073.40;;;30.10;27.28
72024;BME280;59889;50.700;5.440;2022-08-03T00:26:38;100073.95;;;30.32;27.30
72024;BME280;59889;50.700;5.440;2022-08-03T00:29:04;100074.49;;;30.09;27.29
72024;BME280;59889;50.700;5.440;2022-08-03T00:31:30;100072.91;;;30.11;27.26
72024;BME280;59889;50.700;5.440;2022-08-03T00:33:55;100070.44;;;30.11;27.25
72024;BME280;59889;50.700;5.440;2022-08-03T00:36:21;100069.67;;;30.00;27.38
72024;BME280;59889;50.700;5.440;2022-08-03T00:38:47;100067.60;;;30.19;27.21
72024;BME280;59889;50.700;5.440;2022-08-03T00:41:13;100069.18;;;30.10;27.27
72024;BME280;59889;50.700;5.440;2022-08-03T00:43:38;100069.46;;;30.05;27.32
72024;BME280;59889;50.700;5.440;2022-08-03T00:46:04;100068.46;;;30.11;27.26
72024;BME280;59889;50.700;5.440;2022-08-03T00:48:30;100069.51;;;30.10;27.26
72024;BME280;59889;50.700;5.440;2022-08-03T00:50:57;100065.27;;;30.11;27.26
72024;BME280;59889;50.700;5.440;2022-08-03T00:53:22;100065.43;;;30.12;27.25
72024;BME280;59889;50.700;5.440;2022-08-03T00:55:48;100063.70;;;30.06;27.33
72024;BME280;59889;50.700;5.440;2022-08-03T00:58:13;100063.12;;;30.02;27.35
72024;BME280;59889;50.700;5.440;2022-08-03T01:00:40;100062.54;;;30.05;27.33
72024;BME280;59889;50.700;5.440;2022-08-03T01:03:06;100058.41;;;30.15;27.24
72024;BME280;59889;50.700;5.440;2022-08-03T01:05:34;100055.60;;;30.12;27.25
72024;BME280;59889;50.700;5.440;2022-08-03T01:08:02;100052.58;;;30.14;27.22
72024;BME280;59889;50.700;5.440;2022-08-03T01:10:36;100052.52;;;30.11;27.27
72024;BME280;59889;50.700;5.440;2022-08-03T01:12:55;100050.05;;;30.11;27.26
72024;BME280;59889;50.700;5.440;2022-08-03T01:15:18;100051.37;;;29.89;27.24
72024;BME280;59889;50.700;5.440;2022-08-03T01:17:45;100056.32;;;30.10;27.27
72024;BME280;59889;50.700;5.440;2022-08-03T01:20:08;100049.76;;;30.11;27.25
72024;BME280;59889;50.700;5.440;2022-08-03T01:22:44;100050.83;;;30.10;27.28
72024;BME280;59889;50.700;5.440;2022-08-03T01:25:05;100045.04;;;30.13;27.23
72024;BME280;59889;50.700;5.440;2022-08-03T01:27:30;100042.67;;;30.18;27.19
72024;BME280;59889;50.700;5.440;2022-08-03T01:30:00;100044.10;;;30.17;27.19
72024;BME280;59889;50.700;5.440;2022-08-03T01:32:18;100042.86;;;30.16;27.20
72024;BME280;59889;50.700;5.440;2022-08-03T01:34:44;100041.98;;;30.15;27.21
72024;BME280;59889;50.700;5.440;2022-08-03T01:37:08;100041.39;;;30.18;27.18
72024;BME280;59889;50.700;5.440;2022-08-03T01:39:36;100040.97;;;30.16;27.20
72024;BME280;59889;50.700;5.440;2022-08-03T01:42:03;100039.30;;;29.88;27.25
72024;BME280;59889;50.700;5.440;2022-08-03T01:44:25;100038.68;;;30.18;27.17
72024;BME280;59889;50.700;5.440;2022-08-03T01:46:50;100036.87;;;30.14;27.22
72024;BME280;59889;50.700;5.440;2022-08-03T01:49:16;100037.31;;;30.10;27.24
72024;BME280;59889;50.700;5.440;2022-08-03T01:51:44;100036.81;;;30.06;27.30
72024;BME280;59889;50.700;5.440;2022-08-03T01:54:09;100038.85;;;30.02;27.35
72024;BME280;59889;50.700;5.440;2022-08-03T01:56:34;100038.58;;;30.37;27.22
72024;BME280;59889;50.700;5.440;2022-08-03T01:59:00;100035.87;;;30.39;27.19
72024;BME280;59889;50.700;5.440;2022-08-03T02:01:26;100034.22;;;30.41;27.18
72024;BME280;59889;50.700;5.440;2022-08-03T02:03:51;100036.93;;;30.32;27.26
72024;BME280;59889;50.700;5.440;2022-08-03T02:06:19;100033.69;;;30.18;27.16
72024;BME280;59889;50.700;5.440;2022-08-03T02:08:43;100030.68;;;30.10;27.24
72024;BME280;59889;50.700;5.440;2022-08-03T02:11:08;100032.01;;;30.33;27.26
72024;BME280;59889;50.700;5.440;2022-08-03T02:13:34;100032.92;;;30.03;27.32
72024;BME280;59889;50.700;5.440;2022-08-03T02:16:01;100035.12;;;30.05;27.30
72024;BME280;59889;50.700;5.440;2022-08-03T02:18:26;100035.13;;;30.32;27.26
72024;BME280;59889;50.700;5.440;2022-08-03T02:20:51;100035.01;;;30.07;27.27
72024;BME280;59889;50.700;5.440;2022-08-03T02:23:17;100035.04;;;30.14;27.20
72024;BME280;59889;50.700;5.440;2022-08-03T02:25:45;100034.81;;;30.01;27.33
72024;BME280;59889;50.700;5.440;2022-08-03T02:28:11;100037.15;;;30.14;27.20
72024;BME280;59889;50.700;5.440;2022-08-03T02:30:37;100037.08;;;30.09;27.25
72024;BME280;59889;50.700;5.440;2022-08-03T02:33:01;100035.78;;;30.34;27.24
72024;BME280;59889;50.700;5.440;2022-08-03T02:35:28;100035.08;;;30.26;27.31
72024;BME280;59889;50.700;5.440;2022-08-03T02:37:56;100034.56;;;30.16;27.16
72024;BME280;59889;50.700;5.440;2022-08-03T02:40:19;100036.70;;;30.09;27.23
72024;BME280;59889;50.700;5.440;2022-08-03T02:42:45;100040.27;;;30.35;27.20
72024;BME280;59889;50.700;5.440;2022-08-03T02:45:11;100040.80;;;30.50;27.08
72024;BME280;59889;50.700;5.440;2022-08-03T02:47:36;100038.66;;;30.20;27.12
72024;BME280;59889;50.700;5.440;2022-08-03T02:50:02;100035.25;;;30.08;27.23
72024;BME280;59889;50.700;5.440;2022-08-03T02:52:28;100035.30;;;30.14;27.19
72024;BME280;59889;50.700;5.440;2022-08-03T02:54:55;100031.55;;;30.24;27.31
72024;BME280;59889;50.700;5.440;2022-08-03T02:57:19;100028.99;;;30.07;27.24
72024;BME280;59889;50.700;5.440;2022-08-03T02:59:45;100027.32;;;30.11;27.21
72024;BME280;59889;50.700;5.440;2022-08-03T03:02:11;100025.19;;;30.07;27.25
72024;BME280;59889;50.700;5.440;2022-08-03T03:04:36;100023.74;;;30.10;27.21
72024;BME280;59889;50.700;5.440;2022-08-03T03:07:02;100021.43;;;30.57;27.22
72024;BME280;59889;50.700;5.440;2022-08-03T03:09:28;100020.36;;;30.14;27.16
72024;BME280;59889;50.700;5.440;2022-08-03T03:11:54;100018.99;;;30.30;27.24
72024;BME280;59889;50.700;5.440;2022-08-03T03:14:20;100021.00;;;30.05;27.24
72024;BME280;59889;50.700;5.440;2022-08-03T03:16:46;100015.37;;;30.29;27.23
72024;BME280;59889;50.700;5.440;2022-08-03T03:19:14;100018.22;;;30.31;27.22
72024;BME280;59889;50.700;5.440;2022-08-03T03:21:37;100017.96;;;30.09;27.21
72024;BME280;59889;50.700;5.440;2022-08-03T03:24:04;100020.83;;;30.16;27.15
72024;BME280;59889;50.700;5.440;2022-08-03T03:26:28;100020.58;;;30.10;27.19
72024;BME280;59889;50.700;5.440;2022-08-03T03:28:55;100018.01;;;30.00;27.30
72024;BME280;59889;50.700;5.440;2022-08-03T03:31:21;100018.94;;;30.03;27.24
72024;BME280;59889;50.700;5.440;2022-08-03T03:33:46;100017.09;;;30.04;27.24
72024;BME280;59889;50.700;5.440;2022-08-03T03:36:12;100016.06;;;30.06;27.23
72024;BME280;59889;50.700;5.440;2022-08-03T03:38:37;100011.52;;;30.04;27.24
72024;BME280;59889;50.700;5.440;2022-08-03T03:41:04;100012.34;;;29.98;27.30
72024;BME280;59889;50.700;5.440;2022-08-03T03:43:29;100012.27;;;30.34;27.18
72024;BME280;59889;50.700;5.440;2022-08-03T03:45:56;100013.15;;;30.07;27.20
72024;BME280;59889;50.700;5.440;2022-08-03T03:48:21;100012.49;;;30.24;27.27
72024;BME280;59889;50.700;5.440;2022-08-03T03:50:48;100008.89;;;30.33;27.18
72024;BME280;59889;50.700;5.440;2022-08-03T03:53:13;100010.69;;;30.06;27.22
72024;BME280;59889;50.700;5.440;2022-08-03T03:55:39;100010.84;;;30.05;27.22
72024;BME280;59889;50.700;5.440;2022-08-03T03:58:05;100013.24;;;30.25;27.25
72024;BME280;59889;50.700;5.440;2022-08-03T04:00:30;100013.67;;;30.02;27.24
72024;BME280;59889;50.700;5.440;2022-08-03T04:02:56;100012.24;;;29.99;27.28
72024;BME280;59889;50.700;5.440;2022-08-03T04:05:22;100013.48;;;30.25;27.26
72024;BME280;59889;50.700;5.440;2022-08-03T04:07:55;100014.87;;;30.00;27.25
72024;BME280;59889;50.700;5.440;2022-08-03T04:10:17;100015.90;;;29.99;27.26
72024;BME280;59889;50.700;5.440;2022-08-03T04:12:39;100016.80;;;29.92;27.34
72024;BME280;59889;50.700;5.440;2022-08-03T04:15:06;100016.75;;;30.26;27.23
72024;BME280;59889;50.700;5.440;2022-08-03T04:17:31;100017.24;;;29.96;27.29
72024;BME280;59889;50.700;5.440;2022-08-03T04:19:57;100017.01;;;30.43;27.30
72024;BME280;59889;50.700;5.440;2022-08-03T04:22:26;100015.61;;;30.11;27.38
72024;BME280;59889;50.700;5.440;2022-08-03T04:24:52;100011.55;;;30.02;27.22
72024;BME280;59889;50.700;5.440;2022-08-03T04:27:16;100010.77;;;30.15;27.33
72024;BME280;59889;50.700;5.440;2022-08-03T04:29:44;100009.63;;;29.98;27.28
72024;BME280;59889;50.700;5.440;2022-08-03T04:32:07;100009.27;;;29.84;27.41
72024;BME280;59889;50.700;5.440;2022-08-03T04:34:31;100011.07;;;29.95;27.31
72024;BME280;59889;50.700;5.440;2022-08-03T04:36:59;100010.15;;;30.00;27.25
72024;BME280;59889;50.700;5.440;2022-08-03T04:39:25;100010.64;;;29.94;27.32
72024;BME280;59889;50.700;5.440;2022-08-03T04:41:52;100014.22;;;30.40;27.34
72024;BME280;59889;50.700;5.440;2022-08-03T04:44:16;100014.90;;;30.12;27.38
72024;BME280;59889;50.700;5.440;2022-08-03T04:46:41;100019.39;;;29.90;27.36
72024;BME280;59889;50.700;5.440;2022-08-03T04:49:06;100022.43;;;29.87;27.40
72024;BME280;59889;50.700;5.440;2022-08-03T04:51:33;100023.94;;;30.11;27.42
72024;BME280;59889;50.700;5.440;2022-08-03T04:53:58;100026.85;;;29.95;27.32
72024;BME280;59889;50.700;5.440;2022-08-03T04:56:24;100028.73;;;30.11;27.41
72024;BME280;59889;50.700;5.440;2022-08-03T04:58:50;100025.47;;;29.89;27.38
72024;BME280;59889;50.700;5.440;2022-08-03T05:01:16;100027.04;;;30.01;27.27
72024;BME280;59889;50.700;5.440;2022-08-03T05:03:41;100028.67;;;29.92;27.35
72024;BME280;59889;50.700;5.440;2022-08-03T05:06:07;100027.98;;;29.88;27.37
72024;BME280;59889;50.700;5.440;2022-08-03T05:08:33;100029.66;;;30.39;27.35
72024;BME280;59889;50.700;5.440;2022-08-03T05:10:59;100032.57;;;30.39;27.34
72024;BME280;59889;50.700;5.440;2022-08-03T05:13:24;100032.45;;;30.18;27.32
72024;BME280;59889;50.700;5.440;2022-08-03T05:15:50;100035.10;;;30.05;27.44
72024;BME280;59889;50.700;5.440;2022-08-03T05:18:16;100035.44;;;29.85;27.40
72024;BME280;59889;50.700;5.440;2022-08-03T05:20:42;100035.31;;;30.12;27.37
72024;BME280;59889;50.700;5.440;2022-08-03T05:23:08;100035.64;;;30.16;27.34
72024;BME280;59889;50.700;5.440;2022-08-03T05:25:33;100040.18;;;29.86;27.40
72024;BME280;59889;50.700;5.440;2022-08-03T05:27:59;100041.81;;;30.18;27.32
72024;BME280;59889;50.700;5.440;2022-08-03T05:30:26;100039.57;;;30.10;27.40
72024;BME280;59889;50.700;5.440;2022-08-03T05:32:51;100038.57;;;29.83;27.41
72024;BME280;59889;50.700;5.440;2022-08-03T05:35:17;100038.46;;;30.39;27.34
72024;BME280;59889;50.700;5.440;2022-08-03T05:37:42;100040.87;;;30.39;27.34
72024;BME280;59889;50.700;5.440;2022-08-03T05:40:09;100041.84;;;30.23;27.26
72024;BME280;59889;50.700;5.440;2022-08-03T05:42:36;100042.84;;;29.88;27.41
72024;BME280;59889;50.700;5.440;2022-08-03T05:45:03;100039.42;;;30.22;27.38
72024;BME280;59889;50.700;5.440;2022-08-03T05:47:26;100036.97;;;30.13;27.42
72024;BME280;59889;50.700;5.440;2022-08-03T05:49:51;100037.72;;;29.92;27.39
72024;BME280;59889;50.700;5.440;2022-08-03T05:52:18;100041.23;;;30.19;27.36
72024;BME280;59889;50.700;5.440;2022-08-03T05:54:43;100038.69;;;30.00;27.55
72024;BME280;59889;50.700;5.440;2022-08-03T05:57:09;100039.49;;;30.09;27.48
72024;BME280;59889;50.700;5.440;2022-08-03T05:59:37;100040.19;;;30.06;27.50
72024;BME280;59889;50.700;5.440;2022-08-03T06:02:01;100042.77;;;29.78;27.55
72024;BME280;59889;50.700;5.440;2022-08-03T06:04:26;100042.16;;;29.79;27.56
72024;BME280;59889;50.700;5.440;2022-08-03T06:06:52;100042.64;;;29.79;27.58
72024;BME280;59889;50.700;5.440;2022-08-03T06:09:18;100044.70;;;30.14;27.50
72024;BME280;59889;50.700;5.440;2022-08-03T06:11:44;100045.77;;;29.99;27.66
72024;BME280;59889;50.700;5.440;2022-08-03T06:14:10;100047.24;;;30.21;27.68
72024;BME280;59889;50.700;5.440;2022-08-03T06:16:35;100048.88;;;29.97;27.69
72024;BME280;59889;50.700;5.440;2022-08-03T06:19:02;100049.35;;;29.99;27.66
72024;BME280;59889;50.700;5.440;2022-08-03T06:21:27;100049.25;;;30.26;27.66
72024;BME280;59889;50.700;5.440;2022-08-03T06:23:53;100047.66;;;30.05;27.60
72024;BME280;59889;50.700;5.440;2022-08-03T06:26:19;100045.56;;;30.16;27.75
72024;BME280;59889;50.700;5.440;2022-08-03T06:28:45;100046.41;;;29.71;27.75
72024;BME280;59889;50.700;5.440;2022-08-03T06:31:11;100044.55;;;29.90;27.80
72024;BME280;59889;50.700;5.440;2022-08-03T06:33:36;100044.11;;;30.17;27.76
72024;BME280;59889;50.700;5.440;2022-08-03T06:36:03;100046.10;;;29.89;27.82
72024;BME280;59889;50.700;5.440;2022-08-03T06:38:28;100044.92;;;29.89;27.80
72024;BME280;59889;50.700;5.440;2022-08-03T06:40:54;100045.08;;;29.89;27.81
72024;BME280;59889;50.700;5.440;2022-08-03T06:43:20;100045.32;;;29.97;27.75
72024;BME280;59889;50.700;5.440;2022-08-03T06:45:45;100049.00;;;29.91;27.79
72024;BME280;59889;50.700;5.440;2022-08-03T06:48:11;100050.84;;;30.08;27.88
72024;BME280;59889;50.700;5.440;2022-08-03T06:50:38;100050.98;;;30.20;27.75
72024;BME280;59889;50.700;5.440;2022-08-03T06:53:04;100052.41;;;30.19;27.78
72024;BME280;59889;50.700;5.440;2022-08-03T06:55:29;100051.72;;;30.16;27.80
72024;BME280;59889;50.700;5.440;2022-08-03T06:57:55;100052.86;;;30.20;27.76
72024;BME280;59889;50.700;5.440;2022-08-03T07:00:20;100055.27;;;30.01;27.72
72024;BME280;59889;50.700;5.440;2022-08-03T07:02:46;100056.35;;;30.15;27.79
72024;BME280;59889;50.700;5.440;2022-08-03T07:05:12;100055.19;;;30.29;27.67
72024;BME280;59889;50.700;5.440;2022-08-03T07:07:38;100057.93;;;30.03;27.67
72024;BME280;59889;50.700;5.440;2022-08-03T07:10:05;100060.09;;;29.79;27.67
72024;BME280;59889;50.700;5.440;2022-08-03T07:12:30;100060.32;;;30.27;27.67
72024;BME280;59889;50.700;5.440;2022-08-03T07:14:56;100061.76;;;29.97;27.74
72024;BME280;59889;50.700;5.440;2022-08-03T07:17:21;100063.49;;;29.79;27.67
72024;BME280;59889;50.700;5.440;2022-08-03T07:19:47;100063.71;;;29.84;27.64
72024;BME280;59889;50.700;5.440;2022-08-03T07:22:12;100063.85;;;30.07;27.66
72024;BME280;59889;50.700;5.440;2022-08-03T07:24:38;100065.23;;;30.26;27.69
72024;BME280;59889;50.700;5.440;2022-08-03T07:27:04;100066.13;;;30.08;27.65
72024;BME280;59889;50.700;5.440;2022-08-03T07:29:30;100065.31;;;29.87;27.62
72024;BME280;59889;50.700;5.440;2022-08-03T07:31:56;100067.78;;;30.32;27.64
72024;BME280;59889;50.700;5.440;2022-08-03T07:34:22;100072.08;;;29.93;27.58
72024;BME280;59889;50.700;5.440;2022-08-03T07:36:47;100070.66;;;30.40;27.60
72024;BME280;59889;50.700;5.440;2022-08-03T07:39:13;100071.51;;;29.94;27.58
72024;BME280;59889;50.700;5.440;2022-08-03T07:41:39;100070.66;;;29.97;27.57
72024;BME280;59889;50.700;5.440;2022-08-03T07:44:05;100071.30;;;29.83;27.45
72024;BME280;59889;50.700;5.440;2022-08-03T07:46:31;100074.30;;;30.34;27.43
72024;BME280;59889;50.700;5.440;2022-08-03T07:48:56;100074.24;;;30.50;27.51
72024;BME280;59889;50.700;5.440;2022-08-03T07:51:22;100073.47;;;30.10;27.44
72024;BME280;59889;50.700;5.440;2022-08-03T07:53:48;100069.88;;;30.10;27.46
72024;BME280;59889;50.700;5.440;2022-08-03T07:56:14;100069.22;;;30.43;27.37
72024;BME280;59889;50.700;5.440;2022-08-03T07:58:40;100069.08;;;30.67;27.36
72024;BME280;59889;50.700;5.440;2022-08-03T08:01:05;100068.13;;;30.21;27.34
72024;BME280;59889;50.700;5.440;2022-08-03T08:03:31;100066.73;;;30.41;27.39
72024;BME280;59889;50.700;5.440;2022-08-03T08:05:57;100068.81;;;30.27;27.30
72024;BME280;59889;50.700;5.440;2022-08-03T08:08:23;100070.57;;;30.20;27.37
72024;BME280;59889;50.700;5.440;2022-08-03T08:10:49;100070.89;;;30.78;27.29
72024;BME280;59889;50.700;5.440;2022-08-03T08:13:15;100071.15;;;30.37;27.21
72024;BME280;59889;50.700;5.440;2022-08-03T08:15:41;100073.03;;;30.32;27.27
72024;BME280;59889;50.700;5.440;2022-08-03T08:18:06;100072.71;;;30.33;27.25
72024;BME280;59889;50.700;5.440;2022-08-03T08:20:34;100072.02;;;30.41;27.18
72024;BME280;59889;50.700;5.440;2022-08-03T08:22:59;100072.02;;;30.67;27.16
72024;BME280;59889;50.700;5.440;2022-08-03T08:25:24;100068.44;;;30.06;27.28
72024;BME280;59889;50.700;5.440;2022-08-03T08:27:50;100068.89;;;30.59;27.25
72024;BME280;59889;50.700;5.440;2022-08-03T08:30:17;100067.63;;;30.27;27.32
72024;BME280;59889;50.700;5.440;2022-08-03T08:32:41;100065.61;;;30.12;27.45
72024;BME280;59889;50.700;5.440;2022-08-03T08:35:08;100068.20;;;30.41;27.17
72024;BME280;59889;50.700;5.440;2022-08-03T08:37:34;100069.40;;;30.71;27.12
72024;BME280;59889;50.700;5.440;2022-08-03T08:39:59;100071.31;;;30.49;27.33
72024;BME280;59889;50.700;5.440;2022-08-03T08:42:25;100071.86;;;30.04;27.33
72024;BME280;59889;50.700;5.440;2022-08-03T08:44:51;100067.86;;;30.20;27.40
72024;BME280;59889;50.700;5.440;2022-08-03T08:47:17;100072.15;;;30.29;27.32
72024;BME280;59889;50.700;5.440;2022-08-03T08:49:42;100073.27;;;30.23;27.38
72024;BME280;59889;50.700;5.440;2022-08-03T08:52:08;100068.82;;;30.19;27.44
72024;BME280;59889;50.700;5.440;2022-08-03T08:54:35;100072.74;;;30.31;27.32
72024;BME280;59889;50.700;5.440;2022-08-03T08:57:02;100072.46;;;30.24;27.39
72024;BME280;59889;50.700;5.440;2022-08-03T08:59:25;100072.50;;;30.37;27.26
72024;BME280;59889;50.700;5.440;2022-08-03T09:01:55;100068.42;;;30.38;27.25
72024;BME280;59889;50.700;5.440;2022-08-03T09:04:17;100067.51;;;30.44;27.19
72024;BME280;59889;50.700;5.440;2022-08-03T09:06:43;100070.65;;;30.43;27.21
72024;BME280;59889;50.700;5.440;2022-08-03T09:09:08;100069.92;;;30.39;27.24
72024;BME280;59889;50.700;5.440;2022-08-03T09:11:34;100068.93;;;30.22;27.19
72024;BME280;59889;50.700;5.440;2022-08-03T09:14:00;100067.03;;;30.21;27.20
72024;BME280;59889;50.700;5.440;2022-08-03T09:16:26;100067.60;;;30.16;27.26
72024;BME280;59889;50.700;5.440;2022-08-03T09:18:53;100070.57;;;30.42;27.24
72024;BME280;59889;50.700;5.440;2022-08-03T09:21:20;100071.66;;;30.24;27.19
72024;BME280;59889;50.700;5.440;2022-08-03T09:23:44;100072.48;;;30.17;27.27
72024;BME280;59889;50.700;5.440;2022-08-03T09:26:09;100069.91;;;30.32;27.13
72024;BME280;59889;50.700;5.440;2022-08-03T09:28:35;100070.78;;;30.27;27.18
72024;BME280;59889;50.700;5.440;2022-08-03T09:31:01;100070.43;;;30.36;27.11
72024;BME280;59889;50.700;5.440;2022-08-03T09:33:27;100068.34;;;30.57;27.13
72024;BME280;59889;50.700;5.440;2022-08-03T09:35:52;100067.93;;;30.31;27.13
72024;BME280;59889;50.700;5.440;2022-08-03T09:38:20;100067.27;;;30.40;27.05
72024;BME280;59889;50.700;5.440;2022-08-03T09:40:44;100064.55;;;30.31;27.14
72024;BME280;59889;50.700;5.440;2022-08-03T09:43:10;100060.81;;;30.36;27.11
72024;BME280;59889;50.700;5.440;2022-08-03T09:45:36;100057.59;;;30.38;27.09
72024;BME280;59889;50.700;5.440;2022-08-03T09:48:20;100055.71;;;30.59;27.13
72024;BME280;59889;50.700;5.440;2022-08-03T09:50:27;100054.49;;;30.69;27.02
72024;BME280;59889;50.700;5.440;2022-08-03T09:52:53;100050.98;;;30.17;27.07
72024;BME280;59889;50.700;5.440;2022-08-03T09:55:19;100055.39;;;30.58;27.14
72024;BME280;59889;50.700;5.440;2022-08-03T09:57:44;100050.34;;;30.70;27.03
72024;BME280;59889;50.700;5.440;2022-08-03T10:00:12;100053.55;;;30.37;27.13
72024;BME280;59889;50.700;5.440;2022-08-03T10:02:37;100058.41;;;30.61;27.13
72024;BME280;59889;50.700;5.440;2022-08-03T10:05:03;100055.14;;;30.38;27.13
72024;BME280;59889;50.700;5.440;2022-08-03T10:07:28;100050.79;;;30.63;27.12
72024;BME280;59889;50.700;5.440;2022-08-03T10:09:56;100052.76;;;30.60;27.14
72024;BME280;59889;50.700;5.440;2022-08-03T10:12:20;100051.47;;;30.70;27.05
72024;BME280;59889;50.700;5.440;2022-08-03T10:14:46;100049.05;;;30.37;27.14
72024;BME280;59889;50.700;5.440;2022-08-03T10:17:11;100049.75;;;30.65;27.11
72024;BME280;59889;50.700;5.440;2022-08-03T10:19:37;100049.94;;;30.39;27.15
72024;BME280;59889;50.700;5.440;2022-08-03T10:22:08;100044.75;;;30.36;27.17
72024;BME280;59889;50.700;5.440;2022-08-03T10:24:29;100045.08;;;30.36;27.17
72024;BME280;59889;50.700;5.440;2022-08-03T10:27:01;100044.27;;;30.59;27.18
72024;BME280;59889;50.700;5.440;2022-08-03T10:29:21;100041.54;;;30.42;27.14
72024;BME280;59889;50.700;5.440;2022-08-03T10:31:46;100037.20;;;30.63;27.15
72024;BME280;59889;50.700;5.440;2022-08-03T10:34:18;100037.22;;;30.87;27.15
72024;BME280;59889;50.700;5.440;2022-08-03T10:36:39;100032.89;;;30.33;27.21
72024;BME280;59889;50.700;5.440;2022-08-03T10:39:03;100032.72;;;30.39;27.18
72024;BME280;59889;50.700;5.440;2022-08-03T10:41:33;100033.89;;;30.57;27.23
72024;BME280;59889;50.700;5.440;2022-08-03T10:43:58;100028.46;;;30.39;27.17
72024;BME280;59889;50.700;5.440;2022-08-03T10:46:21;100022.09;;;30.41;27.14
72024;BME280;59889;50.700;5.440;2022-08-03T10:48:48;100023.08;;;30.40;27.16
72024;BME280;59889;50.700;5.440;2022-08-03T10:51:13;100022.29;;;30.33;27.23
72024;BME280;59889;50.700;5.440;2022-08-03T10:53:40;100022.57;;;30.28;27.32
72024;BME280;59889;50.700;5.440;2022-08-03T10:56:04;100024.22;;;30.61;27.22
72024;BME280;59889;50.700;5.440;2022-08-03T10:58:46;100021.17;;;30.61;27.23
72024;BME280;59889;50.700;5.440;2022-08-03T11:00:56;100014.07;;;30.71;27.12
72024;BME280;59889;50.700;5.440;2022-08-03T11:03:21;100009.77;;;30.39;27.18
72024;BME280;59889;50.700;5.440;2022-08-03T11:05:47;100013.54;;;30.63;27.19
72024;BME280;59889;50.700;5.440;2022-08-03T11:08:18;100016.42;;;30.43;27.14
72024;BME280;59889;50.700;5.440;2022-08-03T11:10:40;100018.56;;;30.71;27.15
72024;BME280;59889;50.700;5.440;2022-08-03T11:13:06;100012.09;;;30.42;27.18
72024;BME280;59889;50.700;5.440;2022-08-03T11:15:32;100008.57;;;30.36;27.23
72024;BME280;59889;50.700;5.440;2022-08-03T11:18:06;100009.73;;;30.62;27.20
72024;BME280;59889;50.700;5.440;2022-08-03T11:22:49;100005.61;;;30.42;27.20
72024;BME280;59889;50.700;5.440;2022-08-03T11:25:14;100005.52;;;30.50;27.13
72024;BME280;59889;50.700;5.440;2022-08-03T11:27:40;100005.62;;;30.46;27.14
72024;BME280;59889;50.700;5.440;2022-08-03T11:30:08;99999.54;;;30.70;27.14
72024;BME280;59889;50.700;5.440;2022-08-03T11:35:07;99993.05;;;30.45;27.18
72024;BME280;59889;50.700;5.440;2022-08-03T11:37:23;99997.11;;;30.73;27.12
72024;BME280;59889;50.700;5.440;2022-08-03T11:39:51;100000.43;;;30.75;27.10
72024;BME280;59889;50.700;5.440;2022-08-03T11:44:40;99997.10;;;30.79;27.07
72024;BME280;59889;50.700;5.440;2022-08-03T11:47:07;99997.34;;;30.53;27.14
72024;BME280;59889;50.700;5.440;2022-08-03T11:49:32;99990.95;;;30.51;27.11
72024;BME280;59889;50.700;5.440;2022-08-03T11:51:58;99988.77;;;30.48;27.16
72024;BME280;59889;50.700;5.440;2022-08-03T11:54:24;99991.55;;;30.70;27.21
72024;BME280;59889;50.700;5.440;2022-08-03T11:56:49;99991.11;;;30.51;27.16
72024;BME280;59889;50.700;5.440;2022-08-03T11:59:16;99993.18;;;30.28;27.15
72024;BME280;59889;50.700;5.440;2022-08-03T12:01:41;99994.64;;;30.50;27.14
72024;BME280;59889;50.700;5.440;2022-08-03T12:04:07;99987.64;;;30.74;27.17
72024;BME280;59889;50.700;5.440;2022-08-03T12:06:32;99992.22;;;30.51;27.15
72024;BME280;59889;50.700;5.440;2022-08-03T12:08:58;99993.24;;;30.75;27.16
72024;BME280;59889;50.700;5.440;2022-08-03T12:11:24;99993.15;;;30.46;27.22
72024;BME280;59889;50.700;5.440;2022-08-03T12:13:50;99988.50;;;30.54;27.12
72024;BME280;59889;50.700;5.440;2022-08-03T12:16:17;99988.04;;;30.53;27.15
72024;BME280;59889;50.700;5.440;2022-08-03T12:18:41;99992.39;;;30.76;27.17
72024;BME280;59889;50.700;5.440;2022-08-03T12:21:09;99987.79;;;30.56;27.17
72024;BME280;59889;50.700;5.440;2022-08-03T12:23:34;99984.38;;;30.54;27.14
72024;BME280;59889;50.700;5.440;2022-08-03T12:26:02;99979.76;;;30.54;27.16
72024;BME280;59889;50.700;5.440;2022-08-03T12:28:25;99977.23;;;30.55;27.19
72024;BME280;59889;50.700;5.440;2022-08-03T12:30:51;99978.28;;;30.84;27.11
72024;BME280;59889;50.700;5.440;2022-08-03T12:33:19;99975.01;;;30.55;27.16
72024;BME280;59889;50.700;5.440;2022-08-03T12:35:42;99972.01;;;30.50;27.21
72024;BME280;59889;50.700;5.440;2022-08-03T12:38:09;99971.61;;;30.82;27.14
72024;BME280;59889;50.700;5.440;2022-08-03T12:40:34;99967.01;;;30.50;27.25
72024;BME280;59889;50.700;5.440;2022-08-03T12:43:00;99968.50;;;30.42;27.33
72024;BME280;59889;50.700;5.440;2022-08-03T12:45:27;99966.41;;;30.63;27.11
72024;BME280;59889;50.700;5.440;2022-08-03T12:47:53;99967.70;;;30.61;27.14
72024;BME280;59889;50.700;5.440;2022-08-03T12:50:22;99969.05;;;30.85;27.18